Currently 71°F in Temecula, California, USA
71°F
72°F / 71°F
calm
0.00"
Sunday, September 15, 2019 12:55 AM PDT

Temecula, California Weather Summary
Last 36 Hours

Temperature Winds Hourly Humidity Dewpoint
Time Report Norm Report Norm Max Gusts Precip. Rpt. Norm Rpt. Norm Pressure
1,3Sun 12:55 AM  70.8°F  64°F  calm  1 mph  none  0.00"  55%  81%  53°F  58°F  29.93"
2Sun 12:00 AM  71.9°F  65°F  calm  1 mph  none  0.00"  49%  80%  51°F  58°F  29.92"
Sat 11:00 PM  74.6°F  66°F  calm  1 mph  none  0.00"  47%  78%  52°F  59°F  29.91"
Sat 10:00 PM  77.4°F  68°F  calm  1 mph  8 mph  0.00"  42%  75%  52°F  59°F  29.93"
Sat 09:00 PM  80.4°F  69°F  calm  2 mph  8 mph  0.00"  37%  71%  51°F  59°F  29.90"
Sat 08:00 PM  83.5°F  72°F  5 mph S  3 mph  10 mph  0.00"  33%  65%  50°F  59°F  29.88"
Sat 07:00 PM  88.2°F  76°F  3 mph S  4 mph  12 mph  0.00"  28%  56%  50°F  58°F  29.85"
Sat 06:00 PM  94.8°F  81°F  8 mph S  7 mph  15 mph  0.00"  25%  46%  52°F  58°F  29.85"
Sat 05:00 PM  94.7°F  84°F  6 mph SW  8 mph  17 mph  0.00"  26%  41%  54°F  57°F  29.84"
Sat 04:00 PM  96.2°F  86°F  10 mph S  9 mph  16 mph  0.00"  21%  38%  49°F  57°F  29.83"
Sat 03:00 PM  98.4°F  88°F  8 mph SW  9 mph  14 mph  0.00"  21%  36%  50°F  57°F  29.83"
Sat 02:00 PM  100.4°F  88°F  8 mph SW  9 mph  15 mph  0.00"  21%  36%  53°F  57°F  29.85"
Sat 01:00 PM  99.4°F  86°F  7 mph S  7 mph  12 mph  0.00"  20%  37%  50°F  56°F  29.89"
Sat 12:00 PM  96.5°F  83°F  3 mph S  5 mph  7 mph  0.00"  19%  42%  46°F  57°F  29.91"
Sat 11:00 AM  88.1°F  78°F  2 mph NW  3 mph  5 mph  0.00"  29%  52%  51°F  58°F  29.94"
Sat 10:00 AM  79.2°F  72°F  calm  2 mph  2 mph  0.00"  41%  65%  53°F  59°F  29.96"
Sat 09:00 AM  69.5°F  66°F  calm  1 mph  2 mph  0.00"  59%  77%  54°F  58°F  29.97"
Sat 08:00 AM  63.9°F  62°F  1 mph S  1 mph  5 mph  0.00"  73%  86%  55°F  57°F  29.96"
Sat 07:00 AM  62.3°F  60°F  calm  calm  none  0.00"  76%  87%  55°F  56°F  29.96"
Sat 06:00 AM  62.7°F  61°F  calm  calm  2 mph  0.00"  75%  87%  54°F  57°F  29.95"
Sat 05:00 AM  63.9°F  61°F  calm  calm  none  0.00"  71%  86%  54°F  57°F  29.94"
Sat 04:00 AM  65.5°F  62°F  calm  calm  none  0.00"  70%  85%  55°F  57°F  29.94"
Sat 03:00 AM  66.9°F  63°F  calm  calm  none  0.00"  67%  84%  55°F  58°F  29.94"
Sat 02:00 AM  68.5°F  63°F  calm  1 mph  2 mph  0.00"  65%  83%  56°F  58°F  29.95"
Sat 01:00 AM  69.3°F  64°F  calm  1 mph  1 mph  0.00"  63%  81%  56°F  58°F  29.95"
Sat 12:00 AM  70.9°F  65°F  calm  1 mph  none  0.00"  57%  80%  54°F  59°F  29.94"
Fri 11:00 PM  74.2°F  66°F  calm  1 mph  2 mph  0.00"  60%  78%  59°F  59°F  29.95"
Fri 10:00 PM  76.7°F  68°F  calm  1 mph  5 mph  0.00"  60%  75%  61°F  59°F  29.94"
Fri 09:00 PM  78.9°F  70°F  2 mph S  2 mph  4 mph  0.00"  56%  71%  61°F  59°F  29.92"
Fri 08:00 PM  82.8°F  72°F  calm  3 mph  8 mph  0.00"  49%  65%  61°F  59°F  29.89"
Fri 07:00 PM  88.2°F  76°F  4 mph S  4 mph  10 mph  0.00"  34%  56%  56°F  58°F  29.86"
Fri 06:00 PM  96.7°F  81°F  3 mph SE  7 mph  13 mph  0.00"  29%  46%  58°F  58°F  29.87"
Fri 05:00 PM  95.1°F  84°F  6 mph SW  8 mph  14 mph  0.00"  27%  41%  55°F  57°F  29.87"
Fri 04:00 PM  97.1°F  86°F  5 mph SW  9 mph  14 mph  0.00"  26%  38%  55°F  57°F  29.86"
Fri 03:00 PM  97.7°F  88°F  6 mph SW  9 mph  15 mph  0.00"  23%  36%  52°F  57°F  29.86"
Fri 02:00 PM  99.4°F  88°F  9 mph SW  9 mph  15 mph  0.00"  17%  36%  45°F  57°F  29.88"
Fri 01:00 PM  99.2°F  86°F  7 mph SW  7 mph  14 mph  0.00"  24%  38%  55°F  57°F  29.92"
Fri 12:00 PM  94.9°F  83°F  2 mph SW  5 mph  8 mph  0.00"  18%  42%  44°F  57°F  29.94"

  1. Current weather data. No green row appears if the current weather data is also the high or low for the current day.
  2. High temperature for the current day.
  3. Low temperature for the current day.

The Temecula weather pages are a service of WeatherCurrents. Temecula, California is located in the Temecula Valley, in southwestern Riverside County, along the Interstate 15 highway. The Temecula Valley's rolling hills are home to the Temecula wine country, vineyards, golf courses, a casino resort, and Old Town Temecula.
Copyright ©2019  WeatherCurrents. All rights reserved. - Submit questions and comments - Privacy Policy

This page automatically refreshes every 10 minutes.